Time;durP1;ratioP1;P1;durP2;ratioP2;P2;SDS_P1;SDS_P2;PMS_P1;PMS_P2;Temp;Humidity;BMP_temperature;BMP_pressure;BME280_temperature;BME280_humidity;BME280_pressure;Samples;Min_cycle;Max_cycle;Signal;HPM_P1;HPM_P2
2021/07/03 00:00:32;;;;;;;14.20;9.00;;;14.10;99.90;;;;;;5050917;28;20025;-62
2021/07/03 00:02:58;;;;;;;15.98;8.65;;;14.10;99.90;;;;;;5049332;28;20032;-62
2021/07/03 00:05:23;;;;;;;12.15;8.68;;;14.00;99.90;;;;;;5050704;28;20029;-63
2021/07/03 00:07:49;;;;;;;19.58;9.40;;;14.00;99.90;;;;;;5050485;28;20100;-63
2021/07/03 00:10:15;;;;;;;13.57;10.02;;;14.00;99.90;;;;;;5047962;28;20498;-65
2021/07/03 00:12:41;;;;;;;13.63;8.52;;;13.90;99.90;;;;;;5042752;28;20029;-64
2021/07/03 00:15:11;;;;;;;14.07;9.65;;;13.90;99.90;;;;;;5046706;28;20104;-63
2021/07/03 00:17:37;;;;;;;15.68;9.95;;;13.90;99.90;;;;;;5050981;28;20017;-63
2021/07/03 00:20:09;;;;;;;17.15;9.80;;;13.80;99.90;;;;;;5050829;28;20021;-62
2021/07/03 00:22:36;;;;;;;12.70;9.30;;;13.80;99.90;;;;;;5045130;28;20494;-63
2021/07/03 00:25:02;;;;;;;12.18;9.20;;;13.80;99.90;;;;;;5049666;28;20466;-62
2021/07/03 00:27:28;;;;;;;14.18;9.85;;;13.80;99.90;;;;;;5045600;28;20063;-59
2021/07/03 00:29:53;;;;;;;14.85;10.23;;;13.80;99.90;;;;;;5048325;28;20053;-63
2021/07/03 00:32:19;;;;;;;17.00;10.35;;;13.70;99.90;;;;;;5049722;28;20062;-63
2021/07/03 00:34:44;;;;;;;16.55;10.63;;;13.70;99.90;;;;;;5045779;28;20060;-63
2021/07/03 00:37:10;;;;;;;16.70;10.70;;;13.70;99.90;;;;;;5047248;28;20040;-63
2021/07/03 00:39:35;;;;;;;15.32;9.45;;;13.70;99.90;;;;;;5047441;28;20021;-63
2021/07/03 00:42:01;;;;;;;14.77;9.15;;;13.60;99.90;;;;;;5049624;28;20025;-60
2021/07/03 00:44:29;;;;;;;15.15;9.82;;;13.60;99.90;;;;;;5046802;28;20028;-63
2021/07/03 00:46:54;;;;;;;17.58;10.70;;;13.50;99.90;;;;;;5048458;28;20032;-64
2021/07/03 00:49:20;;;;;;;15.73;10.98;;;13.50;99.90;;;;;;5045846;28;20033;-57
2021/07/03 00:51:46;;;;;;;17.55;10.55;;;13.40;99.90;;;;;;5041176;28;20037;-63
2021/07/03 00:54:12;;;;;;;19.38;11.23;;;13.40;99.90;;;;;;5038497;28;20063;-63
2021/07/03 00:56:38;;;;;;;16.35;10.85;;;13.30;99.90;;;;;;5043294;28;20563;-64
2021/07/03 00:59:03;;;;;;;15.50;10.05;;;13.30;99.90;;;;;;5046523;28;20024;-61
2021/07/03 01:01:29;;;;;;;14.98;10.25;;;13.30;99.90;;;;;;5044104;28;20047;-63
2021/07/03 01:03:54;;;;;;;18.65;10.63;;;13.30;99.90;;;;;;5047682;28;20025;-63
2021/07/03 01:06:23;;;;;;;20.98;11.25;;;13.30;99.90;;;;;;5047568;28;20029;-61
2021/07/03 01:08:49;;;;;;;22.83;11.88;;;13.20;99.90;;;;;;5048072;28;20367;-61
2021/07/03 01:11:24;;;;;;;18.52;10.35;;;13.30;99.90;;;;;;5047548;28;20028;-63
2021/07/03 01:13:49;;;;;;;22.70;12.23;;;13.20;99.90;;;;;;5043794;28;20060;-63
2021/07/03 01:16:15;;;;;;;15.88;11.65;;;13.20;99.90;;;;;;5045945;28;20083;-63
2021/07/03 01:18:40;;;;;;;15.10;10.93;;;13.20;99.90;;;;;;5048348;28;20032;-63
2021/07/03 01:21:07;;;;;;;18.20;12.45;;;13.10;99.90;;;;;;5045370;28;20021;-63
2021/07/03 01:23:33;;;;;;;18.67;11.93;;;13.20;99.90;;;;;;5045979;28;20120;-64
2021/07/03 01:25:59;;;;;;;21.88;11.90;;;13.20;99.90;;;;;;5047487;28;20071;-63
2021/07/03 01:28:25;;;;;;;21.63;10.82;;;13.10;99.90;;;;;;5045875;28;20486;-62
2021/07/03 01:30:52;;;;;;;23.38;12.70;;;13.10;99.90;;;;;;5045503;28;20044;-61
2021/07/03 01:33:19;;;;;;;24.38;12.48;;;13.10;99.90;;;;;;5045230;28;20121;-64
2021/07/03 01:35:44;;;;;;;24.73;13.55;;;13.10;99.90;;;;;;5009699;28;1053477;-63
2021/07/03 01:38:19;;;;;;;18.52;11.57;;;13.10;99.90;;;;;;5047452;28;20338;-63
2021/07/03 01:40:46;;;;;;;20.27;11.52;;;13.10;99.90;;;;;;5048326;28;20543;-63
2021/07/03 01:43:16;;;;;;;15.60;11.80;;;13.10;99.90;;;;;;5048048;28;20496;-63
2021/07/03 01:45:42;;;;;;;15.52;11.73;;;13.10;99.90;;;;;;5045161;28;20414;-64
2021/07/03 01:48:07;;;;;;;18.70;12.48;;;13.10;99.90;;;;;;5049416;28;20029;-63
2021/07/03 01:50:33;;;;;;;20.70;12.65;;;13.00;99.90;;;;;;5046385;28;20122;-63
2021/07/03 01:52:59;;;;;;;19.92;12.90;;;13.00;99.90;;;;;;5046633;28;20064;-63
2021/07/03 01:55:24;;;;;;;17.85;10.82;;;13.00;99.90;;;;;;5048863;28;20040;-64
2021/07/03 01:57:50;;;;;;;23.23;11.88;;;13.00;99.90;;;;;;5049142;28;20025;-61
2021/07/03 02:00:16;;;;;;;18.02;12.65;;;12.90;99.90;;;;;;5042493;28;20060;-61
2021/07/03 02:02:41;;;;;;;17.13;12.13;;;12.90;99.90;;;;;;5043993;28;20205;-63
2021/07/03 02:05:08;;;;;;;21.48;10.73;;;13.00;99.90;;;;;;5047455;28;20564;-64
2021/07/03 02:07:33;;;;;;;19.52;11.45;;;13.00;99.90;;;;;;5046917;28;20112;-64
2021/07/03 02:10:00;;;;;;;18.90;12.25;;;13.00;99.90;;;;;;5050049;28;20104;-62
2021/07/03 02:12:25;;;;;;;16.85;11.02;;;13.00;99.90;;;;;;5041424;28;20021;-64
2021/07/03 02:14:51;;;;;;;18.58;12.15;;;12.90;99.90;;;;;;5061389;28;20739;-64
2021/07/03 02:17:17;;;;;;;18.73;12.38;;;12.90;99.90;;;;;;5050663;28;20041;-62
2021/07/03 02:19:42;;;;;;;22.42;12.35;;;12.90;99.90;;;;;;5043799;28;20055;-64
2021/07/03 02:22:08;;;;;;;20.73;13.13;;;12.90;99.90;;;;;;5043822;28;20048;-66
2021/07/03 02:24:34;;;;;;;19.40;12.13;;;12.90;99.90;;;;;;5051299;28;20092;-62
2021/07/03 02:26:59;;;;;;;16.45;11.43;;;12.90;99.90;;;;;;5051177;28;20123;-62
2021/07/03 02:29:25;;;;;;;16.98;11.50;;;12.90;99.90;;;;;;5050774;28;20133;-64
2021/07/03 02:31:50;;;;;;;19.42;11.55;;;12.80;99.90;;;;;;5051312;28;20037;-63
2021/07/03 02:34:16;;;;;;;17.52;12.18;;;12.80;99.90;;;;;;5050044;28;20142;-62
2021/07/03 02:36:41;;;;;;;16.17;11.55;;;12.80;99.90;;;;;;5052453;28;20041;-64
2021/07/03 02:39:07;;;;;;;14.93;10.57;;;12.90;99.90;;;;;;5052632;28;20025;-62
2021/07/03 02:41:33;;;;;;;20.65;12.75;;;12.90;99.90;;;;;;5051594;28;20049;-62
2021/07/03 02:44:00;;;;;;;21.20;12.48;;;12.90;99.90;;;;;;5049852;28;20033;-61
2021/07/03 02:46:26;;;;;;;22.27;12.68;;;12.90;99.90;;;;;;5052392;28;20029;-63
2021/07/03 02:48:51;;;;;;;20.45;12.80;;;12.80;99.90;;;;;;5051166;28;20635;-63
2021/07/03 02:51:17;;;;;;;16.05;11.65;;;12.80;99.90;;;;;;5048648;28;20040;-63
2021/07/03 02:53:43;;;;;;;21.95;11.73;;;12.80;99.90;;;;;;5049793;28;20112;-62
2021/07/03 02:56:08;;;;;;;22.75;11.98;;;12.70;99.90;;;;;;5049584;28;20033;-64
2021/07/03 02:58:34;;;;;;;22.13;12.55;;;12.80;99.90;;;;;;5052674;28;20542;-63
2021/07/03 03:01:00;;;;;;;22.00;12.57;;;12.70;99.90;;;;;;5049732;28;20039;-61
2021/07/03 03:03:26;;;;;;;24.38;12.70;;;12.70;99.90;;;;;;5044782;28;20029;-63
2021/07/03 03:05:51;;;;;;;19.10;12.35;;;12.70;99.90;;;;;;5047014;28;20486;-63
2021/07/03 03:08:17;;;;;;;17.70;12.25;;;12.70;99.90;;;;;;5051289;28;20029;-64
2021/07/03 03:10:43;;;;;;;20.48;12.27;;;12.70;99.90;;;;;;5052960;28;20035;-63
2021/07/03 03:13:08;;;;;;;19.08;12.35;;;12.70;99.90;;;;;;5049079;28;20036;-63
2021/07/03 03:15:34;;;;;;;17.60;12.00;;;12.60;99.90;;;;;;5051916;28;20025;-61
2021/07/03 03:17:59;;;;;;;18.77;12.68;;;12.60;99.90;;;;;;5050992;28;20501;-64
2021/07/03 03:20:25;;;;;;;18.58;12.63;;;12.60;99.90;;;;;;5052603;28;20566;-62
2021/07/03 03:22:51;;;;;;;22.80;12.68;;;12.60;99.90;;;;;;5045709;28;20032;-63
2021/07/03 03:25:16;;;;;;;22.40;12.13;;;12.60;99.90;;;;;;5051007;28;20040;-63
2021/07/03 03:27:42;;;;;;;17.42;11.60;;;12.60;99.90;;;;;;5052405;28;20033;-58
2021/07/03 03:30:08;;;;;;;18.95;11.82;;;12.70;99.90;;;;;;5051495;28;20024;-62
2021/07/03 03:32:34;;;;;;;16.13;11.57;;;12.70;99.90;;;;;;5050216;28;20033;-62
2021/07/03 03:35:00;;;;;;;17.73;11.43;;;12.70;99.90;;;;;;5040465;28;20052;-62
2021/07/03 03:37:25;;;;;;;18.23;11.50;;;12.60;99.90;;;;;;5050577;28;20036;-60
2021/07/03 03:39:51;;;;;;;16.83;11.75;;;12.60;99.90;;;;;;5050817;28;20021;-63
2021/07/03 03:42:16;;;;;;;14.85;10.63;;;12.60;99.90;;;;;;5051589;28;20113;-63
2021/07/03 03:44:42;;;;;;;23.17;10.75;;;12.60;99.90;;;;;;5050115;28;20060;-64
2021/07/03 03:47:07;;;;;;;18.60;12.00;;;12.60;99.90;;;;;;5050836;28;20057;-64
2021/07/03 03:49:33;;;;;;;22.85;11.00;;;12.70;99.90;;;;;;5050184;28;20095;-64
2021/07/03 03:51:58;;;;;;;16.02;11.23;;;12.70;99.90;;;;;;5051821;28;20557;-63
2021/07/03 03:54:24;;;;;;;16.88;12.27;;;12.70;99.90;;;;;;5049964;28;20087;-63
2021/07/03 03:57:21;;;;;;;16.60;10.75;;;12.80;99.90;;;;;;5050438;28;20041;-61
2021/07/03 03:59:35;;;;;;;13.38;9.55;;;12.80;99.90;;;;;;5047070;28;20061;-61
2021/07/03 04:02:01;;;;;;;15.82;10.93;;;12.90;99.90;;;;;;5046335;28;20501;-61
2021/07/03 04:04:26;;;;;;;18.08;9.90;;;13.00;99.90;;;;;;5047760;28;20387;-63
2021/07/03 04:06:52;;;;;;;16.48;9.98;;;13.10;99.90;;;;;;5049820;28;20035;-62
2021/07/03 04:09:17;;;;;;;16.10;10.05;;;13.20;99.90;;;;;;5051621;28;20032;-63
2021/07/03 04:11:43;;;;;;;16.77;10.23;;;13.30;99.90;;;;;;5049346;28;20049;-60
2021/07/03 04:14:08;;;;;;;11.82;9.00;;;13.40;99.90;;;;;;5045784;28;20021;-63
2021/07/03 04:16:34;;;;;;;12.18;9.13;;;13.60;99.90;;;;;;5050036;28;20139;-63
2021/07/03 04:18:59;;;;;;;15.35;9.40;;;13.70;99.90;;;;;;5050297;28;20029;-63
2021/07/03 04:21:25;;;;;;;18.08;9.07;;;13.80;99.90;;;;;;5051282;28;20089;-64
2021/07/03 04:23:50;;;;;;;11.13;8.52;;;13.90;99.90;;;;;;5049098;28;20433;-63
2021/07/03 04:26:16;;;;;;;16.85;8.82;;;14.00;99.90;;;;;;5050012;28;20735;-64
2021/07/03 04:28:42;;;;;;;14.65;7.90;;;14.10;99.90;;;;;;5048360;28;20535;-62
2021/07/03 04:31:07;;;;;;;12.02;8.60;;;14.30;99.90;;;;;;5051466;28;20064;-63
2021/07/03 04:33:33;;;;;;;13.07;9.25;;;14.50;99.90;;;;;;5050190;28;20033;-64
2021/07/03 04:35:58;;;;;;;10.25;7.30;;;14.80;99.90;;;;;;5046829;28;20041;-61
2021/07/03 04:38:24;;;;;;;12.98;7.90;;;15.50;99.90;;;;;;5047016;28;20025;-63
2021/07/03 04:40:49;;;;;;;9.60;7.05;;;16.20;99.90;;;;;;5046281;28;20389;-61
2021/07/03 04:43:15;;;;;;;9.27;7.15;;;16.50;99.90;;;;;;5048026;28;20442;-64
2021/07/03 04:45:40;;;;;;;12.20;6.75;;;17.20;99.90;;;;;;5048287;28;20125;-63
2021/07/03 04:48:06;;;;;;;9.13;7.15;;;17.50;99.90;;;;;;5049379;28;20017;-63
2021/07/03 04:50:32;;;;;;;13.27;7.03;;;17.60;99.90;;;;;;5049603;28;20024;-63
2021/07/03 04:52:57;;;;;;;9.90;7.32;;;18.00;99.90;;;;;;5050861;28;20047;-64
2021/07/03 04:55:23;;;;;;;11.32;7.13;;;18.40;99.90;;;;;;5047903;28;20025;-62
2021/07/03 04:57:51;;;;;;;12.38;6.85;;;18.70;99.90;;;;;;5048627;28;20074;-64
2021/07/03 05:00:17;;;;;;;8.50;7.20;;;18.80;99.90;;;;;;5048480;28;20389;-63
2021/07/03 05:02:43;;;;;;;9.05;6.63;;;19.00;99.90;;;;;;5048548;28;20112;-64
2021/07/03 05:05:09;;;;;;;19.20;6.50;;;19.30;99.90;;;;;;5048499;28;20117;-65
2021/07/03 05:07:34;;;;;;;8.95;6.20;;;19.70;99.90;;;;;;5050602;28;20040;-66
2021/07/03 05:10:00;;;;;;;10.23;5.22;;;20.30;99.90;;;;;;5049293;28;20028;-65
2021/07/03 05:12:26;;;;;;;9.20;6.13;;;20.70;99.90;;;;;;5050251;28;20417;-66
2021/07/03 05:14:51;;;;;;;7.97;5.63;;;20.50;99.90;;;;;;5046927;28;20520;-65
2021/07/03 05:17:17;;;;;;;8.95;6.57;;;20.30;99.90;;;;;;5050222;28;20136;-65
2021/07/03 05:19:42;;;;;;;11.18;6.20;;;19.80;99.90;;;;;;5046961;28;20053;-62
2021/07/03 05:22:08;;;;;;;9.13;5.95;;;19.50;99.90;;;;;;5049439;28;20027;-64
2021/07/03 05:24:33;;;;;;;10.25;5.93;;;20.10;99.90;;;;;;5047648;28;20055;-61
2021/07/03 05:26:59;;;;;;;8.38;6.03;;;20.90;99.90;;;;;;5043288;28;20028;-64
2021/07/03 05:29:24;;;;;;;8.20;6.15;;;22.00;99.40;;;;;;5048650;28;20050;-64
2021/07/03 05:31:51;;;;;;;7.88;5.32;;;23.10;97.00;;;;;;5049760;28;20028;-64
2021/07/03 05:34:16;;;;;;;5.97;5.03;;;23.40;96.30;;;;;;5046268;28;21777;-66
2021/07/03 05:36:45;;;;;;;10.20;6.78;;;23.20;95.80;;;;;;5045208;28;20040;-67
2021/07/03 05:39:11;;;;;;;8.65;5.38;;;24.30;94.20;;;;;;5048476;28;20060;-66
2021/07/03 05:41:36;;;;;;;8.25;5.07;;;25.40;92.50;;;;;;5050167;28;20056;-65
2021/07/03 05:44:02;;;;;;;11.27;5.43;;;26.10;90.40;;;;;;5048023;28;20017;-63
2021/07/03 05:46:28;;;;;;;6.90;4.88;;;26.80;87.80;;;;;;5046596;28;20024;-65
2021/07/03 05:48:54;;;;;;;8.50;5.65;;;26.60;87.20;;;;;;5046277;28;20036;-66
2021/07/03 05:51:22;;;;;;;6.90;5.47;;;26.60;85.70;;;;;;5048538;28;20108;-66
2021/07/03 05:53:47;;;;;;;5.28;4.63;;;27.30;85.20;;;;;;5048153;28;20029;-64
2021/07/03 05:56:13;;;;;;;4.88;4.38;;;27.50;82.40;;;;;;5047917;28;20048;-65
2021/07/03 05:58:38;;;;;;;7.03;4.82;;;29.20;78.70;;;;;;5047864;28;20039;-65
2021/07/03 06:01:05;;;;;;;10.43;4.97;;;29.30;73.80;;;;;;5045990;28;20029;-66
2021/07/03 06:03:30;;;;;;;8.68;5.93;;;29.70;73.50;;;;;;5042440;28;20021;-65
2021/07/03 06:05:56;;;;;;;7.22;5.85;;;28.30;73.10;;;;;;5047740;28;20029;-66
2021/07/03 06:08:21;;;;;;;6.03;4.40;;;28.50;74.50;;;;;;5046719;28;20890;-66
2021/07/03 06:10:47;;;;;;;7.97;5.15;;;28.90;74.30;;;;;;5048488;28;20041;-66
2021/07/03 06:13:12;;;;;;;5.88;4.60;;;29.80;72.80;;;;;;5047137;28;20097;-65
2021/07/03 06:15:38;;;;;;;5.30;4.78;;;29.50;70.80;;;;;;5043540;28;20025;-63
2021/07/03 06:18:04;;;;;;;6.65;4.88;;;30.30;70.70;;;;;;5044138;28;20021;-64
2021/07/03 06:20:29;;;;;;;5.72;4.40;;;30.60;70.10;;;;;;5047412;28;20021;-64
2021/07/03 06:22:55;;;;;;;6.70;4.93;;;30.90;67.70;;;;;;5044069;28;20517;-64
2021/07/03 06:25:20;;;;;;;5.47;4.80;;;30.00;66.80;;;;;;5012346;28;20136;-63
2021/07/03 06:27:46;;;;;;;5.13;4.63;;;30.00;67.90;;;;;;5042026;28;20175;-61
2021/07/03 06:30:12;;;;;;;7.75;4.60;;;31.20;66.10;;;;;;5042476;28;20029;-63
2021/07/03 06:32:38;;;;;;;8.13;5.13;;;31.60;65.70;;;;;;5034236;28;20510;-63
2021/07/03 06:35:05;;;;;;;8.07;5.03;;;31.70;61.90;;;;;;5045346;28;20087;-63
2021/07/03 06:37:32;;;;;;;7.65;5.00;;;31.40;63.20;;;;;;5038295;28;20114;-64
2021/07/03 06:39:57;;;;;;;9.02;5.03;;;32.10;62.40;;;;;;5043275;28;20032;-63
2021/07/03 06:42:24;;;;;;;5.88;5.10;;;31.30;62.20;;;;;;5047278;28;20033;-64
2021/07/03 06:44:50;;;;;;;6.00;5.40;;;31.30;61.50;;;;;;5047515;28;20087;-63
2021/07/03 06:47:15;;;;;;;7.70;5.25;;;32.30;61.80;;;;;;5045902;28;20095;-63
2021/07/03 06:49:42;;;;;;;6.13;5.00;;;32.40;60.20;;;;;;5048880;28;20466;-64
2021/07/03 06:52:09;;;;;;;6.78;5.40;;;32.70;59.80;;;;;;5047646;28;20104;-65
2021/07/03 06:54:35;;;;;;;5.72;5.07;;;31.80;59.60;;;;;;5047379;28;20025;-61
2021/07/03 06:57:01;;;;;;;10.00;5.30;;;31.20;60.80;;;;;;5047049;28;20563;-64
2021/07/03 06:59:27;;;;;;;6.22;4.55;;;32.20;60.50;;;;;;5047261;28;20056;-64
2021/07/03 07:01:54;;;;;;;6.40;4.57;;;32.80;60.40;;;;;;5033514;28;20017;-64
2021/07/03 07:04:20;;;;;;;7.30;3.97;;;32.70;59.50;;;;;;5051358;28;20025;-63
2021/07/03 07:06:54;;;;;;;5.75;4.63;;;33.90;58.30;;;;;;5049468;28;20039;-65
2021/07/03 07:09:20;;;;;;;6.97;4.38;;;32.90;57.00;;;;;;5051579;28;20116;-64
2021/07/03 07:11:46;;;;;;;7.07;4.40;;;32.10;58.90;;;;;;5049792;28;20104;-64
2021/07/03 07:14:13;;;;;;;6.72;4.72;;;33.50;58.50;;;;;;5051260;28;20031;-64
2021/07/03 07:16:39;;;;;;;7.38;4.43;;;33.50;58.70;;;;;;5050066;28;20509;-64
2021/07/03 07:19:05;;;;;;;5.97;4.53;;;34.00;56.80;;;;;;5050205;28;20024;-64
2021/07/03 07:21:31;;;;;;;6.45;4.13;;;34.50;56.20;;;;;;5049848;28;20826;-64
2021/07/03 07:23:57;;;;;;;7.75;4.07;;;34.90;54.90;;;;;;5047391;28;20028;-63
2021/07/03 07:26:23;;;;;;;4.88;3.92;;;35.10;55.80;;;;;;5035785;28;20109;-64
2021/07/03 07:28:50;;;;;;;6.18;4.35;;;35.20;54.40;;;;;;5046539;28;20611;-63
2021/07/03 07:31:16;;;;;;;6.35;4.95;;;35.70;53.60;;;;;;5049575;28;20064;-64
2021/07/03 07:33:41;;;;;;;4.60;4.13;;;35.20;52.50;;;;;;5051526;28;20047;-65
2021/07/03 07:36:07;;;;;;;5.18;4.07;;;34.10;53.50;;;;;;5049175;28;20036;-64
2021/07/03 07:38:33;;;;;;;5.38;4.47;;;34.80;53.60;;;;;;5050089;28;20021;-62
2021/07/03 07:40:58;;;;;;;7.03;4.20;;;35.90;52.00;;;;;;5047980;28;20081;-63
2021/07/03 07:43:24;;;;;;;10.88;4.30;;;34.60;53.70;;;;;;5051426;28;20485;-64
2021/07/03 07:45:50;;;;;;;5.00;4.05;;;35.20;53.50;;;;;;5047277;28;20418;-63
2021/07/03 07:48:15;;;;;;;6.75;4.13;;;35.00;53.10;;;;;;5051068;28;20119;-63
2021/07/03 07:50:41;;;;;;;4.63;3.47;;;34.90;54.00;;;;;;5048341;28;20045;-65
2021/07/03 07:53:07;;;;;;;4.78;3.78;;;35.50;52.10;;;;;;5049784;28;20029;-64
2021/07/03 07:55:33;;;;;;;4.60;4.10;;;35.50;53.50;;;;;;5047883;28;20378;-63
2021/07/03 07:57:58;;;;;;;5.75;4.38;;;35.30;52.80;;;;;;5049604;28;20375;-64
2021/07/03 08:00:24;;;;;;;6.70;4.10;;;34.70;52.00;;;;;;5047759;28;20397;-63
2021/07/03 08:02:50;;;;;;;7.35;4.68;;;35.00;53.30;;;;;;5049217;28;20454;-64
2021/07/03 08:05:17;;;;;;;7.28;4.38;;;34.90;51.70;;;;;;5050949;28;20020;-65
2021/07/03 08:07:43;;;;;;;6.00;4.40;;;34.40;52.00;;;;;;5047803;28;20029;-63
2021/07/03 08:10:10;;;;;;;4.35;3.95;;;34.30;53.30;;;;;;5044627;28;20040;-65
2021/07/03 08:12:36;;;;;;;7.00;4.65;;;34.90;54.20;;;;;;5043417;28;20082;-65
2021/07/03 08:15:04;;;;;;;6.03;4.85;;;34.50;53.20;;;;;;5046389;28;20481;-64
2021/07/03 08:17:30;;;;;;;6.60;3.83;;;34.80;53.70;;;;;;5047741;28;20033;-64
2021/07/03 08:19:56;;;;;;;7.50;4.63;;;35.80;51.90;;;;;;5047572;28;20023;-64
2021/07/03 08:22:22;;;;;;;4.85;4.35;;;36.00;50.40;;;;;;5042670;28;20041;-64
2021/07/03 08:24:47;;;;;;;5.30;4.60;;;35.90;49.80;;;;;;5046573;28;20053;-64
2021/07/03 08:27:13;;;;;;;5.60;4.30;;;36.00;49.90;;;;;;5031714;28;20041;-64
2021/07/03 08:29:38;;;;;;;7.22;4.43;;;36.00;51.30;;;;;;5044643;28;20053;-64
2021/07/03 08:32:04;;;;;;;6.78;4.60;;;36.80;49.60;;;;;;5049207;28;20385;-64
2021/07/03 08:34:30;;;;;;;5.32;3.92;;;36.70;48.60;;;;;;5044248;28;20040;-60
2021/07/03 08:36:55;;;;;;;8.75;4.75;;;37.10;49.00;;;;;;5049002;28;20535;-65
2021/07/03 08:39:21;;;;;;;6.43;4.78;;;36.90;48.90;;;;;;5049096;28;20036;-64
2021/07/03 08:41:46;;;;;;;5.03;3.95;;;36.40;48.00;;;;;;5047513;28;20089;-62
2021/07/03 08:44:14;;;;;;;6.80;4.75;;;36.00;48.60;;;;;;5040318;28;20087;-64
2021/07/03 08:46:48;;;;;;;5.43;4.07;;;34.90;49.00;;;;;;5036803;28;20461;-64
2021/07/03 08:49:16;;;;;;;7.38;4.32;;;35.60;50.70;;;;;;5036978;28;20040;-63
2021/07/03 08:51:43;;;;;;;4.85;4.38;;;36.10;47.10;;;;;;5037031;28;20797;-64
2021/07/03 08:54:09;;;;;;;6.50;4.18;;;35.90;47.50;;;;;;5032858;28;20032;-62
2021/07/03 08:56:35;;;;;;;6.97;4.68;;;35.80;50.40;;;;;;5042841;28;20123;-64
2021/07/03 08:59:01;;;;;;;4.85;4.35;;;35.10;48.10;;;;;;5046350;28;20024;-64
2021/07/03 09:01:26;;;;;;;8.55;4.40;;;35.50;49.10;;;;;;5045305;28;20029;-63
2021/07/03 09:03:54;;;;;;;5.68;4.18;;;35.30;49.20;;;;;;5042394;28;20044;-66
2021/07/03 09:06:33;;;;;;;7.60;4.32;;;36.00;48.00;;;;;;5043498;28;20070;-65
2021/07/03 09:09:00;;;;;;;6.28;4.32;;;36.20;48.60;;;;;;5042183;28;20482;-63
2021/07/03 09:11:26;;;;;;;5.97;3.92;;;35.80;49.80;;;;;;5041779;28;20514;-63
2021/07/03 09:14:00;;;;;;;4.72;4.03;;;35.40;49.40;;;;;;5041233;28;20141;-65
2021/07/03 09:16:36;;;;;;;4.30;3.50;;;35.40;48.80;;;;;;5031700;28;20025;-64
2021/07/03 09:19:03;;;;;;;3.88;3.47;;;35.90;48.20;;;;;;5040916;28;20096;-63
2021/07/03 09:21:30;;;;;;;11.57;4.20;;;35.90;48.60;;;;;;5042596;28;20025;-65
2021/07/03 09:23:58;;;;;;;4.05;3.20;;;35.60;46.10;;;;;;5043947;28;20044;-64
2021/07/03 09:26:23;;;;;;;5.53;3.63;;;35.80;46.80;;;;;;5025668;28;20045;-64
2021/07/03 09:28:49;;;;;;;5.53;3.92;;;35.70;45.50;;;;;;5037289;28;20032;-65
2021/07/03 09:31:18;;;;;;;4.28;3.85;;;35.30;46.00;;;;;;5040499;28;20166;-64
2021/07/03 09:33:49;;;;;;;5.43;3.20;;;34.80;48.10;;;;;;5039339;28;20504;-62
2021/07/03 09:36:26;;;;;;;6.53;4.03;;;35.10;49.70;;;;;;5035471;28;20116;-62
2021/07/03 09:38:53;;;;;;;8.13;3.90;;;34.60;49.20;;;;;;5035092;28;20040;-64
2021/07/03 09:41:31;;;;;;;5.55;3.63;;;35.00;46.90;;;;;;5035318;28;20040;-65
2021/07/03 09:44:02;;;;;;;4.72;3.97;;;34.50;48.70;;;;;;5033375;28;20079;-65
2021/07/03 09:46:32;;;;;;;4.57;3.58;;;34.70;48.50;;;;;;5036650;28;20563;-63
2021/07/03 09:49:02;;;;;;;5.82;3.78;;;35.20;48.20;;;;;;5037199;28;20067;-66
2021/07/03 09:51:29;;;;;;;7.60;3.38;;;34.10;49.30;;;;;;5007708;28;20046;-64
2021/07/03 09:53:57;;;;;;;7.20;4.32;;;34.40;52.30;;;;;;5043479;28;20057;-63
2021/07/03 09:56:23;;;;;;;5.03;3.95;;;34.10;52.10;;;;;;5045563;28;20509;-64
2021/07/03 09:58:49;;;;;;;5.70;3.97;;;34.10;49.30;;;;;;5048634;28;20025;-63
2021/07/03 10:01:15;;;;;;;4.22;3.83;;;34.10;51.50;;;;;;5046113;28;20099;-64
2021/07/03 10:03:41;;;;;;;4.03;3.60;;;33.50;52.10;;;;;;5048940;28;20555;-63
2021/07/03 10:06:11;;;;;;;5.32;3.67;;;33.50;52.70;;;;;;5044748;28;20035;-61
2021/07/03 10:08:41;;;;;;;4.55;3.40;;;32.50;52.40;;;;;;5048141;28;20083;-64
2021/07/03 10:11:10;;;;;;;10.52;3.72;;;32.90;54.00;;;;;;5049393;28;20102;-63
2021/07/03 10:13:39;;;;;;;6.28;3.88;;;33.30;50.40;;;;;;5048080;28;20029;-64
2021/07/03 10:16:08;;;;;;;6.50;3.47;;;33.00;51.80;;;;;;5040163;28;20486;-63
2021/07/03 10:18:35;;;;;;;6.65;4.07;;;33.00;51.00;;;;;;5046119;28;20052;-64
2021/07/03 10:21:17;;;;;;;4.35;3.60;;;32.30;51.60;;;;;;5047946;28;20025;-64
2021/07/03 10:23:44;;;;;;;3.92;3.40;;;32.10;53.90;;;;;;5046164;28;20112;-63
2021/07/03 10:26:12;;;;;;;6.00;4.05;;;32.20;52.60;;;;;;5013072;28;20046;-63
2021/07/03 10:28:41;;;;;;;5.25;3.97;;;31.80;51.30;;;;;;5043562;28;20025;-64
2021/07/03 10:31:12;;;;;;;5.07;3.60;;;31.60;54.20;;;;;;5032091;28;20508;-64
2021/07/03 10:33:46;;;;;;;6.75;4.05;;;31.40;53.20;;;;;;5034157;28;21107;-62
2021/07/03 10:36:44;;;;;;;7.97;4.10;;;31.00;53.90;;;;;;5039932;28;20502;-64
2021/07/03 10:39:10;;;;;;;5.13;3.85;;;30.60;56.50;;;;;;5014230;28;20116;-60
2021/07/03 10:41:37;;;;;;;6.60;3.45;;;30.60;56.30;;;;;;5041004;28;20103;-65
2021/07/03 10:44:10;;;;;;;6.78;4.38;;;30.60;54.70;;;;;;5046055;28;20370;-62
2021/07/03 10:46:43;;;;;;;5.88;3.70;;;30.20;56.30;;;;;;5052885;28;20422;-65
2021/07/03 10:49:14;;;;;;;6.28;3.90;;;30.10;56.60;;;;;;5046020;28;20394;-64
2021/07/03 10:51:46;;;;;;;8.13;4.20;;;30.60;55.10;;;;;;5037479;28;20084;-65
2021/07/03 10:54:20;;;;;;;6.68;4.72;;;30.30;54.60;;;;;;5037056;28;20029;-64
2021/07/03 10:56:50;;;;;;;7.75;4.47;;;30.30;55.60;;;;;;5035671;28;20522;-64
2021/07/03 10:59:23;;;;;;;4.95;4.00;;;30.20;56.40;;;;;;5040968;28;20083;-64
2021/07/03 11:01:50;;;;;;;5.18;3.70;;;30.10;55.50;;;;;;5034373;28;20033;-63
2021/07/03 11:04:19;;;;;;;4.63;3.63;;;30.00;58.00;;;;;;5039697;28;20025;-64
2021/07/03 11:06:52;;;;;;;5.72;4.10;;;30.20;54.40;;;;;;5038416;28;20021;-63
2021/07/03 11:09:31;;;;;;;6.10;3.67;;;29.80;55.00;;;;;;5038757;28;20026;-63
2021/07/03 11:12:09;;;;;;;4.00;3.33;;;29.50;55.00;;;;;;5035249;28;20033;-62
2021/07/03 11:14:38;;;;;;;6.07;3.92;;;29.50;57.00;;;;;;5035530;28;20725;-65
2021/07/03 11:17:04;;;;;;;5.05;3.65;;;29.30;55.50;;;;;;5045721;28;20033;-64
2021/07/03 11:19:30;;;;;;;4.18;3.65;;;29.20;57.00;;;;;;5048361;28;20762;-64
2021/07/03 11:22:07;;;;;;;5.95;3.70;;;29.10;60.10;;;;;;5049358;28;20107;-64
2021/07/03 11:24:48;;;;;;;7.43;4.18;;;28.80;58.00;;;;;;5051516;28;20013;-60
2021/07/03 11:27:37;;;;;;;4.57;3.97;;;28.70;57.80;;;;;;5034011;28;20041;-62
2021/07/03 11:30:19;;;;;;;4.22;3.80;;;28.80;57.10;;;;;;5051113;28;20073;-64
2021/07/03 11:32:49;;;;;;;7.20;3.85;;;29.20;57.00;;;;;;5050814;28;20103;-64
2021/07/03 11:35:16;;;;;;;6.78;4.15;;;29.10;55.90;;;;;;5049418;28;20474;-64
2021/07/03 11:37:41;;;;;;;7.45;3.72;;;29.20;58.70;;;;;;5047954;28;20021;-65
2021/07/03 11:40:21;;;;;;;5.57;3.78;;;28.90;57.50;;;;;;5048945;28;20040;-64
2021/07/03 11:42:49;;;;;;;4.88;3.85;;;29.10;56.10;;;;;;5047977;28;20025;-64
2021/07/03 11:45:18;;;;;;;4.40;3.58;;;29.10;56.80;;;;;;5050963;28;20422;-64
2021/07/03 11:47:55;;;;;;;6.80;3.88;;;29.20;56.10;;;;;;5051533;28;20031;-65
2021/07/03 11:50:20;;;;;;;4.13;3.00;;;29.00;59.00;;;;;;5051206;28;20033;-64
2021/07/03 11:52:49;;;;;;;3.78;3.40;;;29.10;57.10;;;;;;5051763;28;20398;-64
2021/07/03 11:55:19;;;;;;;3.72;3.38;;;29.40;57.50;;;;;;5044651;28;20025;-64
2021/07/03 11:57:46;;;;;;;4.38;3.40;;;29.30;57.80;;;;;;5044698;28;20032;-64
2021/07/03 12:00:33;;;;;;;4.25;3.28;;;28.90;55.50;;;;;;5049929;28;20029;-65
2021/07/03 12:02:59;;;;;;;4.35;3.70;;;28.90;57.80;;;;;;5050734;28;20025;-64
2021/07/03 12:05:34;;;;;;;10.32;4.05;;;28.50;56.00;;;;;;5048850;28;20444;-65
2021/07/03 12:08:04;;;;;;;4.38;3.55;;;29.00;54.80;;;;;;5055151;28;20033;-65
2021/07/03 12:10:33;;;;;;;4.03;3.45;;;29.30;54.10;;;;;;5043765;28;20060;-65
2021/07/03 12:12:59;;;;;;;4.93;3.40;;;29.20;56.40;;;;;;5049112;28;20033;-64
2021/07/03 12:15:26;;;;;;;4.25;3.20;;;29.10;55.90;;;;;;5046808;28;20565;-65
2021/07/03 12:17:52;;;;;;;4.38;3.50;;;29.30;55.30;;;;;;5048903;28;20016;-65
2021/07/03 12:20:19;;;;;;;6.93;3.30;;;29.50;53.20;;;;;;5050134;28;20027;-65
2021/07/03 12:23:00;;;;;;;6.30;3.60;;;29.30;56.90;;;;;;5050191;28;20409;-66
2021/07/03 12:25:26;;;;;;;4.95;3.10;;;29.40;53.20;;;;;;5043099;28;20079;-64
2021/07/03 12:27:59;;;;;;;3.72;3.40;;;29.30;57.50;;;;;;5026611;28;20055;-65
2021/07/03 12:30:27;;;;;;;5.63;3.65;;;29.10;55.00;;;;;;5049138;28;20036;-65
2021/07/03 12:33:19;;;;;;;6.13;3.25;;;29.30;56.80;;;;;;5049537;28;20025;-64
2021/07/03 12:35:55;;;;;;;6.93;3.30;;;29.40;56.70;;;;;;5041761;28;20056;-61
2021/07/03 12:38:28;;;;;;;4.80;3.47;;;29.50;55.60;;;;;;5049493;28;20060;-65
2021/07/03 12:40:54;;;;;;;;;;;29.80;54.60;;;;;;5046411;28;20025;-64